sensor_id;sensor_type;location;lat;lon;timestamp;temperature;humidity
14993;DHT22;7592;51.088;13.732;2023-08-17T00:00:12;22.30;99.90
14993;DHT22;7592;51.088;13.732;2023-08-17T00:05:07;22.30;99.90
14993;DHT22;7592;51.088;13.732;2023-08-17T00:09:59;22.20;99.90
14993;DHT22;7592;51.088;13.732;2023-08-17T00:14:52;22.10;99.90
14993;DHT22;7592;51.088;13.732;2023-08-17T00:19:44;22.00;99.90
14993;DHT22;7592;51.088;13.732;2023-08-17T00:24:36;21.90;99.90
14993;DHT22;7592;51.088;13.732;2023-08-17T00:29:29;21.80;99.90
14993;DHT22;7592;51.088;13.732;2023-08-17T00:34:21;21.70;99.90
14993;DHT22;7592;51.088;13.732;2023-08-17T00:39:13;21.60;99.90
14993;DHT22;7592;51.088;13.732;2023-08-17T00:44:06;21.80;99.90
14993;DHT22;7592;51.088;13.732;2023-08-17T00:48:58;21.80;99.90
14993;DHT22;7592;51.088;13.732;2023-08-17T00:53:52;21.70;99.90
14993;DHT22;7592;51.088;13.732;2023-08-17T00:58:44;21.70;99.90
14993;DHT22;7592;51.088;13.732;2023-08-17T01:03:37;21.70;99.90
14993;DHT22;7592;51.088;13.732;2023-08-17T01:15:39;21.40;99.90
14993;DHT22;7592;51.088;13.732;2023-08-17T01:20:33;21.20;99.90
14993;DHT22;7592;51.088;13.732;2023-08-17T01:25:25;21.20;99.90
14993;DHT22;7592;51.088;13.732;2023-08-17T01:30:18;21.10;99.90
14993;DHT22;7592;51.088;13.732;2023-08-17T01:35:26;21.10;99.90
14993;DHT22;7592;51.088;13.732;2023-08-17T01:40:20;21.00;99.90
14993;DHT22;7592;51.088;13.732;2023-08-17T01:45:13;20.90;99.90
14993;DHT22;7592;51.088;13.732;2023-08-17T01:50:08;20.90;99.90
14993;DHT22;7592;51.088;13.732;2023-08-17T01:55:00;21.10;99.90
14993;DHT22;7592;51.088;13.732;2023-08-17T01:59:53;21.00;99.90
14993;DHT22;7592;51.088;13.732;2023-08-17T02:04:45;20.90;99.90
14993;DHT22;7592;51.088;13.732;2023-08-17T02:09:37;20.90;99.90
14993;DHT22;7592;51.088;13.732;2023-08-17T02:14:29;20.80;99.90
14993;DHT22;7592;51.088;13.732;2023-08-17T02:19:21;20.70;99.90
14993;DHT22;7592;51.088;13.732;2023-08-17T02:24:14;20.70;99.90
14993;DHT22;7592;51.088;13.732;2023-08-17T02:29:06;20.60;99.90
14993;DHT22;7592;51.088;13.732;2023-08-17T02:33:58;20.70;99.90
14993;DHT22;7592;51.088;13.732;2023-08-17T02:38:56;20.60;99.90
14993;DHT22;7592;51.088;13.732;2023-08-17T02:43:48;20.70;99.90
14993;DHT22;7592;51.088;13.732;2023-08-17T02:48:40;20.70;99.90
14993;DHT22;7592;51.088;13.732;2023-08-17T02:53:32;20.60;99.90
14993;DHT22;7592;51.088;13.732;2023-08-17T02:58:25;20.70;99.90
14993;DHT22;7592;51.088;13.732;2023-08-17T03:03:17;20.70;99.90
14993;DHT22;7592;51.088;13.732;2023-08-17T03:08:10;20.70;99.90
14993;DHT22;7592;51.088;13.732;2023-08-17T03:13:02;20.70;99.90
14993;DHT22;7592;51.088;13.732;2023-08-17T03:17:55;20.70;99.90
14993;DHT22;7592;51.088;13.732;2023-08-17T03:22:47;20.70;99.90
14993;DHT22;7592;51.088;13.732;2023-08-17T03:27:39;20.60;99.90
14993;DHT22;7592;51.088;13.732;2023-08-17T03:32:31;20.60;99.90
14993;DHT22;7592;51.088;13.732;2023-08-17T03:37:23;20.50;99.90
14993;DHT22;7592;51.088;13.732;2023-08-17T03:42:16;20.40;99.90
14993;DHT22;7592;51.088;13.732;2023-08-17T03:47:08;20.50;99.90
14993;DHT22;7592;51.088;13.732;2023-08-17T03:52:00;20.40;99.90
14993;DHT22;7592;51.088;13.732;2023-08-17T03:56:54;20.40;99.90
14993;DHT22;7592;51.088;13.732;2023-08-17T04:01:46;20.40;99.90
14993;DHT22;7592;51.088;13.732;2023-08-17T04:06:39;20.40;99.90
14993;DHT22;7592;51.088;13.732;2023-08-17T04:11:35;20.50;99.90
14993;DHT22;7592;51.088;13.732;2023-08-17T04:16:28;20.50;99.90
14993;DHT22;7592;51.088;13.732;2023-08-17T04:21:20;20.60;99.90
14993;DHT22;7592;51.088;13.732;2023-08-17T04:26:13;20.90;99.90
14993;DHT22;7592;51.088;13.732;2023-08-17T04:31:05;21.00;99.90
14993;DHT22;7592;51.088;13.732;2023-08-17T04:36:01;21.10;99.90
14993;DHT22;7592;51.088;13.732;2023-08-17T04:40:53;21.30;99.90
14993;DHT22;7592;51.088;13.732;2023-08-17T04:45:46;21.50;99.90
14993;DHT22;7592;51.088;13.732;2023-08-17T04:50:40;21.60;99.90
14993;DHT22;7592;51.088;13.732;2023-08-17T04:55:33;21.80;99.90
14993;DHT22;7592;51.088;13.732;2023-08-17T05:00:25;22.10;99.90
14993;DHT22;7592;51.088;13.732;2023-08-17T05:05:21;22.40;99.90
14993;DHT22;7592;51.088;13.732;2023-08-17T05:10:14;22.60;99.90
14993;DHT22;7592;51.088;13.732;2023-08-17T05:15:07;22.60;99.90
14993;DHT22;7592;51.088;13.732;2023-08-17T05:20:04;22.60;99.90
14993;DHT22;7592;51.088;13.732;2023-08-17T05:24:56;22.90;99.90
14993;DHT22;7592;51.088;13.732;2023-08-17T05:29:49;23.10;99.90
14993;DHT22;7592;51.088;13.732;2023-08-17T05:34:42;23.20;99.90
14993;DHT22;7592;51.088;13.732;2023-08-17T05:39:34;23.50;99.90
14993;DHT22;7592;51.088;13.732;2023-08-17T05:44:27;26.20;99.90
14993;DHT22;7592;51.088;13.732;2023-08-17T05:49:19;26.90;99.90
14993;DHT22;7592;51.088;13.732;2023-08-17T05:54:12;29.00;99.90
14993;DHT22;7592;51.088;13.732;2023-08-17T05:59:04;32.20;99.90
14993;DHT22;7592;51.088;13.732;2023-08-17T06:03:56;31.40;99.90
14993;DHT22;7592;51.088;13.732;2023-08-17T06:08:48;29.90;99.90
14993;DHT22;7592;51.088;13.732;2023-08-17T06:13:41;29.90;99.90
14993;DHT22;7592;51.088;13.732;2023-08-17T06:18:33;29.20;99.90
14993;DHT22;7592;51.088;13.732;2023-08-17T06:23:25;28.90;99.90
14993;DHT22;7592;51.088;13.732;2023-08-17T06:28:18;29.50;99.90
14993;DHT22;7592;51.088;13.732;2023-08-17T06:33:10;31.20;99.90
14993;DHT22;7592;51.088;13.732;2023-08-17T06:38:02;34.00;99.90
14993;DHT22;7592;51.088;13.732;2023-08-17T06:42:54;36.20;95.70
14993;DHT22;7592;51.088;13.732;2023-08-17T06:47:47;33.20;96.40
14993;DHT22;7592;51.088;13.732;2023-08-17T06:52:40;31.80;99.90
14993;DHT22;7592;51.088;13.732;2023-08-17T06:57:32;31.60;99.90
14993;DHT22;7592;51.088;13.732;2023-08-17T07:02:24;35.20;95.30
14993;DHT22;7592;51.088;13.732;2023-08-17T07:07:23;38.50;87.80
14993;DHT22;7592;51.088;13.732;2023-08-17T07:12:16;35.50;87.10
14993;DHT22;7592;51.088;13.732;2023-08-17T07:17:08;32.50;93.00
14993;DHT22;7592;51.088;13.732;2023-08-17T07:22:01;34.30;92.40
14993;DHT22;7592;51.088;13.732;2023-08-17T07:26:53;36.50;90.10
14993;DHT22;7592;51.088;13.732;2023-08-17T07:31:45;36.60;86.30
14993;DHT22;7592;51.088;13.732;2023-08-17T07:36:37;39.40;79.70
14993;DHT22;7592;51.088;13.732;2023-08-17T07:41:29;41.80;71.50
14993;DHT22;7592;51.088;13.732;2023-08-17T07:46:21;40.50;68.90
14993;DHT22;7592;51.088;13.732;2023-08-17T07:51:14;40.20;69.60
14993;DHT22;7592;51.088;13.732;2023-08-17T07:56:06;40.60;65.70
14993;DHT22;7592;51.088;13.732;2023-08-17T08:00:58;40.10;67.50
14993;DHT22;7592;51.088;13.732;2023-08-17T08:05:53;40.70;64.50
14993;DHT22;7592;51.088;13.732;2023-08-17T08:10:45;40.70;64.40
14993;DHT22;7592;51.088;13.732;2023-08-17T08:15:37;41.00;62.70
14993;DHT22;7592;51.088;13.732;2023-08-17T08:20:29;40.90;62.90
14993;DHT22;7592;51.088;13.732;2023-08-17T08:25:21;42.60;58.70
14993;DHT22;7592;51.088;13.732;2023-08-17T08:30:14;43.10;56.90
14993;DHT22;7592;51.088;13.732;2023-08-17T08:35:06;43.30;56.90
14993;DHT22;7592;51.088;13.732;2023-08-17T08:39:58;42.80;56.70
14993;DHT22;7592;51.088;13.732;2023-08-17T08:44:50;41.90;57.50
14993;DHT22;7592;51.088;13.732;2023-08-17T08:49:57;41.40;58.40
14993;DHT22;7592;51.088;13.732;2023-08-17T08:54:52;41.70;58.30
14993;DHT22;7592;51.088;13.732;2023-08-17T08:59:46;40.80;59.00
14993;DHT22;7592;51.088;13.732;2023-08-17T09:04:39;39.50;60.90
14993;DHT22;7592;51.088;13.732;2023-08-17T09:09:32;38.20;62.00
14993;DHT22;7592;51.088;13.732;2023-08-17T09:14:25;37.00;64.40
14993;DHT22;7592;51.088;13.732;2023-08-17T09:19:18;35.80;68.00
14993;DHT22;7592;51.088;13.732;2023-08-17T09:24:12;37.70;62.90
14993;DHT22;7592;51.088;13.732;2023-08-17T09:29:24;39.60;60.70
14993;DHT22;7592;51.088;13.732;2023-08-17T09:34:19;42.50;57.60
14993;DHT22;7592;51.088;13.732;2023-08-17T09:39:11;42.80;56.00
14993;DHT22;7592;51.088;13.732;2023-08-17T09:44:06;41.10;57.60
14993;DHT22;7592;51.088;13.732;2023-08-17T09:48:58;42.00;57.30
14993;DHT22;7592;51.088;13.732;2023-08-17T09:53:53;43.80;55.00
14993;DHT22;7592;51.088;13.732;2023-08-17T09:58:51;44.10;54.20
14993;DHT22;7592;51.088;13.732;2023-08-17T10:03:44;43.60;54.50
14993;DHT22;7592;51.088;13.732;2023-08-17T10:08:46;43.50;54.50
14993;DHT22;7592;51.088;13.732;2023-08-17T10:18:53;43.70;54.30
14993;DHT22;7592;51.088;13.732;2023-08-17T10:23:47;43.00;54.00
14993;DHT22;7592;51.088;13.732;2023-08-17T10:28:39;44.00;53.60
14993;DHT22;7592;51.088;13.732;2023-08-17T10:33:32;44.10;54.10
14993;DHT22;7592;51.088;13.732;2023-08-17T10:38:24;43.90;52.80
14993;DHT22;7592;51.088;13.732;2023-08-17T10:43:16;41.90;54.80
14993;DHT22;7592;51.088;13.732;2023-08-17T10:53:10;42.20;54.30
14993;DHT22;7592;51.088;13.732;2023-08-17T10:58:03;43.00;53.90
14993;DHT22;7592;51.088;13.732;2023-08-17T11:02:58;42.80;53.90
14993;DHT22;7592;51.088;13.732;2023-08-17T11:07:51;41.70;55.90
14993;DHT22;7592;51.088;13.732;2023-08-17T11:12:44;41.40;56.40
14993;DHT22;7592;51.088;13.732;2023-08-17T11:17:36;41.00;57.30
14993;DHT22;7592;51.088;13.732;2023-08-17T11:22:28;42.90;54.80
14993;DHT22;7592;51.088;13.732;2023-08-17T11:27:21;42.20;55.50
14993;DHT22;7592;51.088;13.732;2023-08-17T11:32:16;41.90;56.00
14993;DHT22;7592;51.088;13.732;2023-08-17T11:37:11;41.80;55.80
14993;DHT22;7592;51.088;13.732;2023-08-17T11:42:04;42.20;55.20
14993;DHT22;7592;51.088;13.732;2023-08-17T11:46:57;40.10;57.90
14993;DHT22;7592;51.088;13.732;2023-08-17T11:51:49;36.50;64.30
14993;DHT22;7592;51.088;13.732;2023-08-17T11:56:42;34.60;68.80
14993;DHT22;7592;51.088;13.732;2023-08-17T12:01:35;33.80;71.40
14993;DHT22;7592;51.088;13.732;2023-08-17T12:06:28;33.40;73.10
14993;DHT22;7592;51.088;13.732;2023-08-17T12:11:23;33.20;74.40
14993;DHT22;7592;51.088;13.732;2023-08-17T12:16:17;33.10;74.40
14993;DHT22;7592;51.088;13.732;2023-08-17T12:21:10;32.50;76.10
14993;DHT22;7592;51.088;13.732;2023-08-17T12:26:03;32.60;75.10
14993;DHT22;7592;51.088;13.732;2023-08-17T12:31:02;32.50;74.50
14993;DHT22;7592;51.088;13.732;2023-08-17T12:35:55;32.10;75.30
14993;DHT22;7592;51.088;13.732;2023-08-17T12:40:48;32.60;78.40
14993;DHT22;7592;51.088;13.732;2023-08-17T12:45:40;32.90;76.90
14993;DHT22;7592;51.088;13.732;2023-08-17T12:50:32;33.40;73.60
14993;DHT22;7592;51.088;13.732;2023-08-17T12:55:24;33.40;74.10
14993;DHT22;7592;51.088;13.732;2023-08-17T13:00:17;33.20;71.80
14993;DHT22;7592;51.088;13.732;2023-08-17T13:05:09;33.20;70.00
14993;DHT22;7592;51.088;13.732;2023-08-17T13:10:01;33.20;69.20
14993;DHT22;7592;51.088;13.732;2023-08-17T13:14:53;32.60;70.30
14993;DHT22;7592;51.088;13.732;2023-08-17T13:19:45;32.60;70.60
14993;DHT22;7592;51.088;13.732;2023-08-17T13:24:37;32.30;70.50
14993;DHT22;7592;51.088;13.732;2023-08-17T13:29:29;32.20;71.80
14993;DHT22;7592;51.088;13.732;2023-08-17T13:34:22;32.10;71.80
14993;DHT22;7592;51.088;13.732;2023-08-17T13:39:14;32.30;71.40
14993;DHT22;7592;51.088;13.732;2023-08-17T13:44:06;32.30;69.50
14993;DHT22;7592;51.088;13.732;2023-08-17T13:48:59;32.50;70.50
14993;DHT22;7592;51.088;13.732;2023-08-17T13:53:54;32.60;73.00
14993;DHT22;7592;51.088;13.732;2023-08-17T13:58:46;32.50;72.20
14993;DHT22;7592;51.088;13.732;2023-08-17T14:03:38;32.70;73.90
14993;DHT22;7592;51.088;13.732;2023-08-17T14:08:30;32.90;73.40
14993;DHT22;7592;51.088;13.732;2023-08-17T14:13:22;33.10;72.00
14993;DHT22;7592;51.088;13.732;2023-08-17T14:18:15;33.40;71.70
14993;DHT22;7592;51.088;13.732;2023-08-17T14:23:07;33.00;71.80
14993;DHT22;7592;51.088;13.732;2023-08-17T14:27:59;32.80;71.80
14993;DHT22;7592;51.088;13.732;2023-08-17T14:32:51;32.30;72.90
14993;DHT22;7592;51.088;13.732;2023-08-17T14:37:44;32.10;75.20
14993;DHT22;7592;51.088;13.732;2023-08-17T14:42:37;31.70;74.90
14993;DHT22;7592;51.088;13.732;2023-08-17T14:47:29;31.60;77.40
14993;DHT22;7592;51.088;13.732;2023-08-17T14:52:21;31.70;78.70
14993;DHT22;7592;51.088;13.732;2023-08-17T14:57:13;31.70;78.40
14993;DHT22;7592;51.088;13.732;2023-08-17T15:02:08;31.70;78.60
14993;DHT22;7592;51.088;13.732;2023-08-17T15:07:02;31.70;78.40
14993;DHT22;7592;51.088;13.732;2023-08-17T15:12:01;31.60;75.00
14993;DHT22;7592;51.088;13.732;2023-08-17T15:16:58;31.60;74.90
14993;DHT22;7592;51.088;13.732;2023-08-17T15:21:50;31.60;78.00
14993;DHT22;7592;51.088;13.732;2023-08-17T15:26:42;31.50;78.80
14993;DHT22;7592;51.088;13.732;2023-08-17T15:31:34;31.60;81.60
14993;DHT22;7592;51.088;13.732;2023-08-17T15:36:26;31.60;81.10
14993;DHT22;7592;51.088;13.732;2023-08-17T15:41:18;31.50;84.80
14993;DHT22;7592;51.088;13.732;2023-08-17T15:46:11;31.30;86.40
14993;DHT22;7592;51.088;13.732;2023-08-17T15:51:03;31.10;86.00
14993;DHT22;7592;51.088;13.732;2023-08-17T15:55:55;30.90;88.20
14993;DHT22;7592;51.088;13.732;2023-08-17T16:00:47;30.80;85.10
14993;DHT22;7592;51.088;13.732;2023-08-17T16:05:39;30.60;88.70
14993;DHT22;7592;51.088;13.732;2023-08-17T16:10:31;30.60;89.60
14993;DHT22;7592;51.088;13.732;2023-08-17T16:15:26;30.50;90.20
14993;DHT22;7592;51.088;13.732;2023-08-17T16:20:19;30.50;89.50
14993;DHT22;7592;51.088;13.732;2023-08-17T16:25:11;30.40;90.20
14993;DHT22;7592;51.088;13.732;2023-08-17T16:30:03;30.10;90.70
14993;DHT22;7592;51.088;13.732;2023-08-17T16:34:55;29.80;91.30
14993;DHT22;7592;51.088;13.732;2023-08-17T16:39:48;29.60;91.20
14993;DHT22;7592;51.088;13.732;2023-08-17T16:44:40;29.40;91.70
14993;DHT22;7592;51.088;13.732;2023-08-17T16:49:32;29.30;93.10
14993;DHT22;7592;51.088;13.732;2023-08-17T16:54:25;29.10;93.90
14993;DHT22;7592;51.088;13.732;2023-08-17T16:59:17;28.90;95.00
14993;DHT22;7592;51.088;13.732;2023-08-17T17:04:09;28.80;97.60
14993;DHT22;7592;51.088;13.732;2023-08-17T17:09:02;28.70;99.50
14993;DHT22;7592;51.088;13.732;2023-08-17T17:13:54;28.70;99.90
14993;DHT22;7592;51.088;13.732;2023-08-17T17:18:49;28.50;99.90
14993;DHT22;7592;51.088;13.732;2023-08-17T17:23:42;28.50;99.90
14993;DHT22;7592;51.088;13.732;2023-08-17T17:28:34;28.40;99.90
14993;DHT22;7592;51.088;13.732;2023-08-17T17:33:26;28.40;99.90
14993;DHT22;7592;51.088;13.732;2023-08-17T17:38:19;28.20;99.90
14993;DHT22;7592;51.088;13.732;2023-08-17T17:43:11;28.20;99.90
14993;DHT22;7592;51.088;13.732;2023-08-17T17:48:04;28.00;99.90
14993;DHT22;7592;51.088;13.732;2023-08-17T17:52:56;27.90;99.90
14993;DHT22;7592;51.088;13.732;2023-08-17T17:57:48;27.80;99.90
14993;DHT22;7592;51.088;13.732;2023-08-17T18:02:41;27.60;99.90
14993;DHT22;7592;51.088;13.732;2023-08-17T18:07:33;27.60;99.90
14993;DHT22;7592;51.088;13.732;2023-08-17T18:12:25;27.50;99.90
14993;DHT22;7592;51.088;13.732;2023-08-17T18:17:20;27.50;99.90
14993;DHT22;7592;51.088;13.732;2023-08-17T18:22:12;27.40;99.90
14993;DHT22;7592;51.088;13.732;2023-08-17T18:27:05;27.30;99.90
14993;DHT22;7592;51.088;13.732;2023-08-17T18:31:57;27.10;99.90
14993;DHT22;7592;51.088;13.732;2023-08-17T18:36:49;27.00;99.90
14993;DHT22;7592;51.088;13.732;2023-08-17T18:41:41;26.90;99.90
14993;DHT22;7592;51.088;13.732;2023-08-17T18:46:33;26.80;99.90
14993;DHT22;7592;51.088;13.732;2023-08-17T18:51:25;26.80;99.90
14993;DHT22;7592;51.088;13.732;2023-08-17T18:56:17;26.80;99.90
14993;DHT22;7592;51.088;13.732;2023-08-17T19:01:09;26.70;99.90
14993;DHT22;7592;51.088;13.732;2023-08-17T19:06:01;26.70;99.90
14993;DHT22;7592;51.088;13.732;2023-08-17T19:10:54;26.50;99.90
14993;DHT22;7592;51.088;13.732;2023-08-17T19:15:48;26.50;99.90
14993;DHT22;7592;51.088;13.732;2023-08-17T19:20:40;26.50;99.90
14993;DHT22;7592;51.088;13.732;2023-08-17T19:25:32;26.30;99.90
14993;DHT22;7592;51.088;13.732;2023-08-17T19:30:24;26.30;99.90
14993;DHT22;7592;51.088;13.732;2023-08-17T19:35:16;26.20;99.90
14993;DHT22;7592;51.088;13.732;2023-08-17T19:40:09;26.10;99.90
14993;DHT22;7592;51.088;13.732;2023-08-17T19:45:01;26.10;99.90
14993;DHT22;7592;51.088;13.732;2023-08-17T19:49:53;25.90;99.90
14993;DHT22;7592;51.088;13.732;2023-08-17T19:54:45;25.90;99.90
14993;DHT22;7592;51.088;13.732;2023-08-17T19:59:43;25.90;99.90
14993;DHT22;7592;51.088;13.732;2023-08-17T20:04:36;25.90;99.90
14993;DHT22;7592;51.088;13.732;2023-08-17T20:09:29;25.80;99.90
14993;DHT22;7592;51.088;13.732;2023-08-17T20:14:21;25.80;99.90
14993;DHT22;7592;51.088;13.732;2023-08-17T20:19:14;25.80;99.90
14993;DHT22;7592;51.088;13.732;2023-08-17T20:24:06;25.80;99.90
14993;DHT22;7592;51.088;13.732;2023-08-17T20:29:00;25.70;99.90
14993;DHT22;7592;51.088;13.732;2023-08-17T20:33:52;25.70;99.90
14993;DHT22;7592;51.088;13.732;2023-08-17T20:38:45;25.70;99.90
14993;DHT22;7592;51.088;13.732;2023-08-17T20:43:37;25.60;99.90
14993;DHT22;7592;51.088;13.732;2023-08-17T20:48:29;25.40;99.90
14993;DHT22;7592;51.088;13.732;2023-08-17T20:53:21;25.30;99.90
14993;DHT22;7592;51.088;13.732;2023-08-17T20:58:14;25.30;99.90
14993;DHT22;7592;51.088;13.732;2023-08-17T21:03:06;25.10;99.90
14993;DHT22;7592;51.088;13.732;2023-08-17T21:07:59;24.90;99.90
14993;DHT22;7592;51.088;13.732;2023-08-17T21:12:52;24.80;99.90
14993;DHT22;7592;51.088;13.732;2023-08-17T21:17:45;24.70;99.90
14993;DHT22;7592;51.088;13.732;2023-08-17T21:22:41;24.50;99.90
14993;DHT22;7592;51.088;13.732;2023-08-17T21:27:33;24.40;99.90
14993;DHT22;7592;51.088;13.732;2023-08-17T21:32:25;24.20;99.90
14993;DHT22;7592;51.088;13.732;2023-08-17T21:37:25;24.20;99.90
14993;DHT22;7592;51.088;13.732;2023-08-17T21:42:19;24.10;99.90
14993;DHT22;7592;51.088;13.732;2023-08-17T21:47:12;24.00;99.90
14993;DHT22;7592;51.088;13.732;2023-08-17T21:52:04;23.90;99.90
14993;DHT22;7592;51.088;13.732;2023-08-17T21:56:57;23.80;99.90
14993;DHT22;7592;51.088;13.732;2023-08-17T22:01:49;23.70;99.90
14993;DHT22;7592;51.088;13.732;2023-08-17T22:06:42;23.60;99.90
14993;DHT22;7592;51.088;13.732;2023-08-17T22:11:34;23.60;99.90
14993;DHT22;7592;51.088;13.732;2023-08-17T22:16:26;23.50;99.90
14993;DHT22;7592;51.088;13.732;2023-08-17T22:21:18;23.40;99.90
14993;DHT22;7592;51.088;13.732;2023-08-17T22:26:10;23.30;99.90
14993;DHT22;7592;51.088;13.732;2023-08-17T22:31:03;23.30;99.90
14993;DHT22;7592;51.088;13.732;2023-08-17T22:35:55;23.20;99.90
14993;DHT22;7592;51.088;13.732;2023-08-17T22:40:47;23.10;99.90
14993;DHT22;7592;51.088;13.732;2023-08-17T22:45:39;23.10;99.90
14993;DHT22;7592;51.088;13.732;2023-08-17T22:50:32;23.00;99.90
14993;DHT22;7592;51.088;13.732;2023-08-17T22:55:24;22.90;99.90
14993;DHT22;7592;51.088;13.732;2023-08-17T23:00:16;22.80;99.90
14993;DHT22;7592;51.088;13.732;2023-08-17T23:05:10;22.90;99.90
14993;DHT22;7592;51.088;13.732;2023-08-17T23:10:02;22.80;99.90
14993;DHT22;7592;51.088;13.732;2023-08-17T23:14:55;22.70;99.90
14993;DHT22;7592;51.088;13.732;2023-08-17T23:19:47;22.70;99.90
14993;DHT22;7592;51.088;13.732;2023-08-17T23:24:39;22.70;99.90
14993;DHT22;7592;51.088;13.732;2023-08-17T23:29:32;22.60;99.90
14993;DHT22;7592;51.088;13.732;2023-08-17T23:34:24;22.50;99.90
14993;DHT22;7592;51.088;13.732;2023-08-17T23:39:16;22.40;99.90
14993;DHT22;7592;51.088;13.732;2023-08-17T23:44:15;22.50;99.90
14993;DHT22;7592;51.088;13.732;2023-08-17T23:49:08;22.40;99.90
14993;DHT22;7592;51.088;13.732;2023-08-17T23:54:01;22.30;99.90
14993;DHT22;7592;51.088;13.732;2023-08-17T23:58:53;22.20;99.90
